sensor_id;sensor_type;location;lat;lon;timestamp;temperature;humidity
36214;DHT22;37652;50.400;30.628;2023-04-05T00:01:48;3.70;92.10
36214;DHT22;37652;50.400;30.628;2023-04-05T00:03:53;3.70;92.10
36214;DHT22;37652;50.400;30.628;2023-04-05T00:05:54;3.70;92.10
36214;DHT22;37652;50.400;30.628;2023-04-05T00:07:56;3.70;90.10
36214;DHT22;37652;50.400;30.628;2023-04-05T00:09:57;3.40;92.00
36214;DHT22;37652;50.400;30.628;2023-04-05T00:11:58;3.90;92.10
36214;DHT22;37652;50.400;30.628;2023-04-05T00:14:00;3.50;91.20
36214;DHT22;37652;50.400;30.628;2023-04-05T00:16:01;3.50;90.60
36214;DHT22;37652;50.400;30.628;2023-04-05T00:18:02;3.90;92.10
36214;DHT22;37652;50.400;30.628;2023-04-05T00:20:03;3.50;92.10
36214;DHT22;37652;50.400;30.628;2023-04-05T00:22:06;3.40;92.00
36214;DHT22;37652;50.400;30.628;2023-04-05T00:24:10;3.80;92.20
36214;DHT22;37652;50.400;30.628;2023-04-05T00:28:16;4.00;92.20
36214;DHT22;37652;50.400;30.628;2023-04-05T00:30:17;3.90;92.10
36214;DHT22;37652;50.400;30.628;2023-04-05T00:32:21;3.50;91.00
36214;DHT22;37652;50.400;30.628;2023-04-05T00:34:22;3.90;92.20
36214;DHT22;37652;50.400;30.628;2023-04-05T00:36:22;3.60;92.10
36214;DHT22;37652;50.400;30.628;2023-04-05T00:38:23;3.90;92.10
36214;DHT22;37652;50.400;30.628;2023-04-05T00:40:24;3.90;90.40
36214;DHT22;37652;50.400;30.628;2023-04-05T00:42:25;3.40;92.10
36214;DHT22;37652;50.400;30.628;2023-04-05T00:44:26;3.50;92.10
36214;DHT22;37652;50.400;30.628;2023-04-05T00:46:28;3.70;90.60
36214;DHT22;37652;50.400;30.628;2023-04-05T00:48:29;3.70;92.20
36214;DHT22;37652;50.400;30.628;2023-04-05T00:52:31;3.80;92.20
36214;DHT22;37652;50.400;30.628;2023-04-05T00:54:33;3.70;92.20
36214;DHT22;37652;50.400;30.628;2023-04-05T00:58:36;3.70;91.10
36214;DHT22;37652;50.400;30.628;2023-04-05T01:00:37;3.40;91.20
36214;DHT22;37652;50.400;30.628;2023-04-05T01:02:43;3.50;92.30
36214;DHT22;37652;50.400;30.628;2023-04-05T01:04:48;4.00;92.40
36214;DHT22;37652;50.400;30.628;2023-04-05T01:09:35;3.80;92.40
36214;DHT22;37652;50.400;30.628;2023-04-05T01:11:39;3.60;92.40
36214;DHT22;37652;50.400;30.628;2023-04-05T01:13:40;3.30;92.70
36214;DHT22;37652;50.400;30.628;2023-04-05T01:15:40;3.60;93.90
36214;DHT22;37652;50.400;30.628;2023-04-05T01:19:44;3.30;90.60
36214;DHT22;37652;50.400;30.628;2023-04-05T01:22:08;3.60;90.20
36214;DHT22;37652;50.400;30.628;2023-04-05T01:31:36;3.40;92.40
36214;DHT22;37652;50.400;30.628;2023-04-05T01:36:01;3.70;92.40
36214;DHT22;37652;50.400;30.628;2023-04-05T01:38:04;3.40;92.40
36214;DHT22;37652;50.400;30.628;2023-04-05T01:40:07;4.20;92.60
36214;DHT22;37652;50.400;30.628;2023-04-05T01:42:08;3.60;90.40
36214;DHT22;37652;50.400;30.628;2023-04-05T01:46:11;3.90;90.40
36214;DHT22;37652;50.400;30.628;2023-04-05T01:48:12;3.60;90.20
36214;DHT22;37652;50.400;30.628;2023-04-05T01:50:13;3.50;92.40
36214;DHT22;37652;50.400;30.628;2023-04-05T01:52:15;3.10;92.20
36214;DHT22;37652;50.400;30.628;2023-04-05T01:56:16;3.30;92.20
36214;DHT22;37652;50.400;30.628;2023-04-05T01:58:17;3.80;92.40
36214;DHT22;37652;50.400;30.628;2023-04-05T02:02:19;3.40;92.20
36214;DHT22;37652;50.400;30.628;2023-04-05T02:04:20;3.30;92.20
36214;DHT22;37652;50.400;30.628;2023-04-05T02:06:21;3.80;90.40
36214;DHT22;37652;50.400;30.628;2023-04-05T02:08:22;3.10;92.10
36214;DHT22;37652;50.400;30.628;2023-04-05T02:10:24;3.80;92.40
36214;DHT22;37652;50.400;30.628;2023-04-05T02:12:25;3.60;92.30
36214;DHT22;37652;50.400;30.628;2023-04-05T02:16:27;3.80;92.40
36214;DHT22;37652;50.400;30.628;2023-04-05T02:18:27;3.70;92.30
36214;DHT22;37652;50.400;30.628;2023-04-05T02:20:31;3.20;91.60
36214;DHT22;37652;50.400;30.628;2023-04-05T02:22:32;3.60;91.10
36214;DHT22;37652;50.400;30.628;2023-04-05T02:24:33;3.40;92.50
36214;DHT22;37652;50.400;30.628;2023-04-05T02:26:34;3.50;90.40
36214;DHT22;37652;50.400;30.628;2023-04-05T02:28:35;3.30;91.90
36214;DHT22;37652;50.400;30.628;2023-04-05T02:30:36;3.70;91.80
36214;DHT22;37652;50.400;30.628;2023-04-05T02:32:36;3.80;93.70
36214;DHT22;37652;50.400;30.628;2023-04-05T02:34:37;3.50;90.90
36214;DHT22;37652;50.400;30.628;2023-04-05T02:36:40;3.60;92.40
36214;DHT22;37652;50.400;30.628;2023-04-05T02:38:41;3.70;92.30
36214;DHT22;37652;50.400;30.628;2023-04-05T02:42:43;3.70;92.40
36214;DHT22;37652;50.400;30.628;2023-04-05T02:44:43;3.60;92.30
36214;DHT22;37652;50.400;30.628;2023-04-05T02:48:45;3.60;92.60
36214;DHT22;37652;50.400;30.628;2023-04-05T02:50:49;3.10;91.60
36214;DHT22;37652;50.400;30.628;2023-04-05T02:52:50;3.20;92.30
36214;DHT22;37652;50.400;30.628;2023-04-05T02:56:52;3.60;92.20
36214;DHT22;37652;50.400;30.628;2023-04-05T02:58:54;3.50;90.50
36214;DHT22;37652;50.400;30.628;2023-04-05T03:00:54;3.50;92.60
36214;DHT22;37652;50.400;30.628;2023-04-05T03:02:55;3.20;93.90
36214;DHT22;37652;50.400;30.628;2023-04-05T03:04:56;3.50;92.90
36214;DHT22;37652;50.400;30.628;2023-04-05T03:06:56;3.70;92.40
36214;DHT22;37652;50.400;30.628;2023-04-05T03:08:57;3.10;91.90
36214;DHT22;37652;50.400;30.628;2023-04-05T03:10:58;3.70;92.50
36214;DHT22;37652;50.400;30.628;2023-04-05T03:12:59;3.30;92.10
36214;DHT22;37652;50.400;30.628;2023-04-05T03:17:00;3.30;91.60
36214;DHT22;37652;50.400;30.628;2023-04-05T03:19:01;3.80;91.30
36214;DHT22;37652;50.400;30.628;2023-04-05T03:21:04;3.40;92.30
36214;DHT22;37652;50.400;30.628;2023-04-05T03:23:09;3.60;92.50
36214;DHT22;37652;50.400;30.628;2023-04-05T03:25:10;3.50;92.40
36214;DHT22;37652;50.400;30.628;2023-04-05T03:27:11;3.50;92.40
36214;DHT22;37652;50.400;30.628;2023-04-05T03:29:15;4.60;92.70
36214;DHT22;37652;50.400;30.628;2023-04-05T03:31:15;3.70;92.40
36214;DHT22;37652;50.400;30.628;2023-04-05T03:33:17;3.80;90.50
36214;DHT22;37652;50.400;30.628;2023-04-05T03:35:18;3.50;92.60
36214;DHT22;37652;50.400;30.628;2023-04-05T03:37:19;3.40;92.00
36214;DHT22;37652;50.400;30.628;2023-04-05T03:39:20;3.40;92.30
36214;DHT22;37652;50.400;30.628;2023-04-05T03:43:22;4.70;91.70
36214;DHT22;37652;50.400;30.628;2023-04-05T03:45:22;3.40;92.40
36214;DHT22;37652;50.400;30.628;2023-04-05T03:49:24;3.60;92.40
36214;DHT22;37652;50.400;30.628;2023-04-05T03:51:26;3.50;92.40
36214;DHT22;37652;50.400;30.628;2023-04-05T03:53:26;3.30;92.50
36214;DHT22;37652;50.400;30.628;2023-04-05T03:55:28;3.80;91.00
36214;DHT22;37652;50.400;30.628;2023-04-05T03:57:29;3.10;93.00
36214;DHT22;37652;50.400;30.628;2023-04-05T03:59:30;3.50;92.50
36214;DHT22;37652;50.400;30.628;2023-04-05T04:05:36;3.80;92.60
36214;DHT22;37652;50.400;30.628;2023-04-05T04:07:38;3.60;90.40
36214;DHT22;37652;50.400;30.628;2023-04-05T04:09:39;3.60;92.70
36214;DHT22;37652;50.400;30.628;2023-04-05T04:11:39;3.60;95.60
36214;DHT22;37652;50.400;30.628;2023-04-05T04:17:42;3.70;90.70
36214;DHT22;37652;50.400;30.628;2023-04-05T04:19:43;3.20;95.50
36214;DHT22;37652;50.400;30.628;2023-04-05T04:25:52;3.80;92.40
36214;DHT22;37652;50.400;30.628;2023-04-05T04:29:55;3.30;92.20
36214;DHT22;37652;50.400;30.628;2023-04-05T04:32:01;3.20;90.90
36214;DHT22;37652;50.400;30.628;2023-04-05T04:36:08;3.10;90.30
36214;DHT22;37652;50.400;30.628;2023-04-05T04:40:29;3.50;92.30
36214;DHT22;37652;50.400;30.628;2023-04-05T04:42:39;3.50;92.30
36214;DHT22;37652;50.400;30.628;2023-04-05T04:44:43;3.50;92.10
36214;DHT22;37652;50.400;30.628;2023-04-05T04:46:44;3.80;92.50
36214;DHT22;37652;50.400;30.628;2023-04-05T04:48:45;3.80;90.70
36214;DHT22;37652;50.400;30.628;2023-04-05T04:50:47;3.60;92.30
36214;DHT22;37652;50.400;30.628;2023-04-05T04:52:49;3.80;92.50
36214;DHT22;37652;50.400;30.628;2023-04-05T04:54:50;3.30;90.70
36214;DHT22;37652;50.400;30.628;2023-04-05T04:56:51;3.70;90.50
36214;DHT22;37652;50.400;30.628;2023-04-05T04:58:55;3.50;90.30
36214;DHT22;37652;50.400;30.628;2023-04-05T05:00:56;3.60;91.10
36214;DHT22;37652;50.400;30.628;2023-04-05T05:02:58;3.20;92.20
36214;DHT22;37652;50.400;30.628;2023-04-05T05:04:59;3.80;92.40
36214;DHT22;37652;50.400;30.628;2023-04-05T05:09:01;4.10;92.50
36214;DHT22;37652;50.400;30.628;2023-04-05T05:11:05;3.90;92.50
36214;DHT22;37652;50.400;30.628;2023-04-05T05:15:09;3.70;90.30
36214;DHT22;37652;50.400;30.628;2023-04-05T05:21:12;4.10;90.80
36214;DHT22;37652;50.400;30.628;2023-04-05T05:25:16;4.00;92.70
36214;DHT22;37652;50.400;30.628;2023-04-05T05:27:16;3.80;92.90
36214;DHT22;37652;50.400;30.628;2023-04-05T05:29:17;3.90;92.90
36214;DHT22;37652;50.400;30.628;2023-04-05T05:31:19;3.80;92.80
36214;DHT22;37652;50.400;30.628;2023-04-05T05:33:20;3.20;92.70
36214;DHT22;37652;50.400;30.628;2023-04-05T05:37:29;3.30;93.10
36214;DHT22;37652;50.400;30.628;2023-04-05T05:39:30;3.80;93.30
36214;DHT22;37652;50.400;30.628;2023-04-05T05:43:31;4.00;93.80
36214;DHT22;37652;50.400;30.628;2023-04-05T05:45:33;3.50;94.20
36214;DHT22;37652;50.400;30.628;2023-04-05T05:47:33;3.60;94.50
36214;DHT22;37652;50.400;30.628;2023-04-05T05:49:35;3.70;91.20
36214;DHT22;37652;50.400;30.628;2023-04-05T05:51:35;4.00;92.90
36214;DHT22;37652;50.400;30.628;2023-04-05T05:53:37;3.80;92.90
36214;DHT22;37652;50.400;30.628;2023-04-05T05:55:37;3.80;90.80
36214;DHT22;37652;50.400;30.628;2023-04-05T06:01:41;4.10;91.80
36214;DHT22;37652;50.400;30.628;2023-04-05T06:03:46;3.40;92.70
36214;DHT22;37652;50.400;30.628;2023-04-05T06:05:53;3.70;92.80
36214;DHT22;37652;50.400;30.628;2023-04-05T06:07:54;4.00;91.10
36214;DHT22;37652;50.400;30.628;2023-04-05T06:09:55;4.30;93.00
36214;DHT22;37652;50.400;30.628;2023-04-05T06:11:56;3.70;92.70
36214;DHT22;37652;50.400;30.628;2023-04-05T06:13:57;4.10;93.00
36214;DHT22;37652;50.400;30.628;2023-04-05T06:16:00;3.80;92.90
36214;DHT22;37652;50.400;30.628;2023-04-05T06:20:02;3.60;90.90
36214;DHT22;37652;50.400;30.628;2023-04-05T06:26:05;3.80;92.20
36214;DHT22;37652;50.400;30.628;2023-04-05T06:28:06;4.20;94.10
36214;DHT22;37652;50.400;30.628;2023-04-05T06:32:08;4.10;91.40
36214;DHT22;37652;50.400;30.628;2023-04-05T06:34:09;4.20;92.80
36214;DHT22;37652;50.400;30.628;2023-04-05T06:38:11;3.70;92.10
36214;DHT22;37652;50.400;30.628;2023-04-05T06:42:13;4.60;92.70
36214;DHT22;37652;50.400;30.628;2023-04-05T06:44:13;4.50;92.70
36214;DHT22;37652;50.400;30.628;2023-04-05T06:46:14;4.00;92.30
36214;DHT22;37652;50.400;30.628;2023-04-05T06:50:16;3.80;92.50
36214;DHT22;37652;50.400;30.628;2023-04-05T06:52:17;3.90;91.90
36214;DHT22;37652;50.400;30.628;2023-04-05T06:54:17;4.10;91.10
36214;DHT22;37652;50.400;30.628;2023-04-05T07:04:26;4.30;92.60
36214;DHT22;37652;50.400;30.628;2023-04-05T07:06:28;4.10;92.50
36214;DHT22;37652;50.400;30.628;2023-04-05T07:08:31;3.90;90.70
36214;DHT22;37652;50.400;30.628;2023-04-05T07:14:36;4.50;92.60
36214;DHT22;37652;50.400;30.628;2023-04-05T07:16:37;4.60;91.00
36214;DHT22;37652;50.400;30.628;2023-04-05T07:18:38;4.20;92.40
36214;DHT22;37652;50.400;30.628;2023-04-05T07:20:38;4.70;92.30
36214;DHT22;37652;50.400;30.628;2023-04-05T07:24:40;4.50;92.20
36214;DHT22;37652;50.400;30.628;2023-04-05T07:28:42;5.00;92.00
36214;DHT22;37652;50.400;30.628;2023-04-05T07:30:43;5.10;91.30
36214;DHT22;37652;50.400;30.628;2023-04-05T07:34:44;5.10;91.00
36214;DHT22;37652;50.400;30.628;2023-04-05T07:36:46;4.90;90.30
36214;DHT22;37652;50.400;30.628;2023-04-05T07:38:46;5.30;92.30
36214;DHT22;37652;50.400;30.628;2023-04-05T07:40:50;5.20;91.20
36214;DHT22;37652;50.400;30.628;2023-04-05T07:42:51;4.80;91.90
36214;DHT22;37652;50.400;30.628;2023-04-05T07:44:52;4.70;90.70
36214;DHT22;37652;50.400;30.628;2023-04-05T07:52:56;5.00;92.20
36214;DHT22;37652;50.400;30.628;2023-04-05T07:54:56;5.20;90.90
36214;DHT22;37652;50.400;30.628;2023-04-05T07:58:58;4.60;92.20
36214;DHT22;37652;50.400;30.628;2023-04-05T08:01:00;5.00;92.00
36214;DHT22;37652;50.400;30.628;2023-04-05T08:05:02;4.70;92.00
36214;DHT22;37652;50.400;30.628;2023-04-05T08:09:04;5.20;91.20
36214;DHT22;37652;50.400;30.628;2023-04-05T08:11:05;4.90;91.00
36214;DHT22;37652;50.400;30.628;2023-04-05T08:15:07;5.10;92.30
36214;DHT22;37652;50.400;30.628;2023-04-05T08:21:10;4.50;92.40
36214;DHT22;37652;50.400;30.628;2023-04-05T08:23:11;5.50;92.90
36214;DHT22;37652;50.400;30.628;2023-04-05T08:25:12;5.10;92.10
36214;DHT22;37652;50.400;30.628;2023-04-05T08:27:12;4.50;93.00
36214;DHT22;37652;50.400;30.628;2023-04-05T08:29:13;4.60;90.90
36214;DHT22;37652;50.400;30.628;2023-04-05T08:33:15;5.00;93.30
36214;DHT22;37652;50.400;30.628;2023-04-05T08:35:16;5.20;93.30
36214;DHT22;37652;50.400;30.628;2023-04-05T08:37:17;5.10;93.40
36214;DHT22;37652;50.400;30.628;2023-04-05T08:39:17;4.90;93.30
36214;DHT22;37652;50.400;30.628;2023-04-05T08:41:22;5.10;90.50
36214;DHT22;37652;50.400;30.628;2023-04-05T08:43:33;5.40;93.30
36214;DHT22;37652;50.400;30.628;2023-04-05T08:45:48;5.20;92.90
36214;DHT22;37652;50.400;30.628;2023-04-05T08:47:51;4.80;92.70
36214;DHT22;37652;50.400;30.628;2023-04-05T08:49:53;4.90;92.30
36214;DHT22;37652;50.400;30.628;2023-04-05T08:51:54;5.10;90.40
36214;DHT22;37652;50.400;30.628;2023-04-05T08:53:55;4.90;92.90
36214;DHT22;37652;50.400;30.628;2023-04-05T08:55:56;5.20;90.70
36214;DHT22;37652;50.400;30.628;2023-04-05T08:58:00;4.80;92.90
36214;DHT22;37652;50.400;30.628;2023-04-05T09:00:08;5.10;93.20
36214;DHT22;37652;50.400;30.628;2023-04-05T09:02:14;5.20;90.70
36214;DHT22;37652;50.400;30.628;2023-04-05T09:04:23;4.80;90.60
36214;DHT22;37652;50.400;30.628;2023-04-05T09:06:27;5.00;93.30
36214;DHT22;37652;50.400;30.628;2023-04-05T09:08:29;5.00;94.30
36214;DHT22;37652;50.400;30.628;2023-04-05T09:10:30;5.40;93.70
36214;DHT22;37652;50.400;30.628;2023-04-05T09:12:31;4.80;90.30
36214;DHT22;37652;50.400;30.628;2023-04-05T09:14:37;5.20;94.40
36214;DHT22;37652;50.400;30.628;2023-04-05T09:16:39;5.70;92.80
36214;DHT22;37652;50.400;30.628;2023-04-05T09:22:45;5.60;92.40
36214;DHT22;37652;50.400;30.628;2023-04-05T09:24:46;5.30;92.30
36214;DHT22;37652;50.400;30.628;2023-04-05T09:26:47;5.50;92.30
36214;DHT22;37652;50.400;30.628;2023-04-05T09:37:14;5.80;91.30
36214;DHT22;37652;50.400;30.628;2023-04-05T09:43:38;5.70;90.60
36214;DHT22;37652;50.400;30.628;2023-04-05T09:45:41;5.70;90.60
36214;DHT22;37652;50.400;30.628;2023-04-05T09:47:42;5.50;92.20
36214;DHT22;37652;50.400;30.628;2023-04-05T09:49:44;5.70;92.00
36214;DHT22;37652;50.400;30.628;2023-04-05T09:51:45;6.00;91.60
36214;DHT22;37652;50.400;30.628;2023-04-05T09:56:10;5.70;90.30
36214;DHT22;37652;50.400;30.628;2023-04-05T09:58:12;6.00;90.20
36214;DHT22;37652;50.400;30.628;2023-04-05T10:00:18;6.30;92.00
36214;DHT22;37652;50.400;30.628;2023-04-05T10:02:23;6.30;92.00
36214;DHT22;37652;50.400;30.628;2023-04-05T10:04:24;6.40;91.60
36214;DHT22;37652;50.400;30.628;2023-04-05T10:06:51;6.20;90.30
36214;DHT22;37652;50.400;30.628;2023-04-05T10:08:52;6.00;91.80
36214;DHT22;37652;50.400;30.628;2023-04-05T10:12:55;6.20;91.70
36214;DHT22;37652;50.400;30.628;2023-04-05T10:14:56;5.90;91.90
36214;DHT22;37652;50.400;30.628;2023-04-05T10:19:02;6.10;91.50
36214;DHT22;37652;50.400;30.628;2023-04-05T10:21:05;6.90;91.80
36214;DHT22;37652;50.400;30.628;2023-04-05T10:23:21;6.30;91.40
36214;DHT22;37652;50.400;30.628;2023-04-05T10:27:54;6.70;89.70
36214;DHT22;37652;50.400;30.628;2023-04-05T10:30:04;6.30;91.10
36214;DHT22;37652;50.400;30.628;2023-04-05T10:32:59;6.70;89.60
36214;DHT22;37652;50.400;30.628;2023-04-05T10:37:02;6.70;91.30
36214;DHT22;37652;50.400;30.628;2023-04-05T10:41:23;6.50;90.90
36214;DHT22;37652;50.400;30.628;2023-04-05T10:43:25;7.10;91.50
36214;DHT22;37652;50.400;30.628;2023-04-05T10:47:30;6.80;89.70
36214;DHT22;37652;50.400;30.628;2023-04-05T10:49:32;6.90;90.10
36214;DHT22;37652;50.400;30.628;2023-04-05T10:51:36;6.60;91.10
36214;DHT22;37652;50.400;30.628;2023-04-05T10:53:40;6.40;88.90
36214;DHT22;37652;50.400;30.628;2023-04-05T10:55:45;6.40;90.00
36214;DHT22;37652;50.400;30.628;2023-04-05T10:57:46;7.00;91.30
36214;DHT22;37652;50.400;30.628;2023-04-05T10:59:49;6.60;91.10
36214;DHT22;37652;50.400;30.628;2023-04-05T11:01:52;6.60;91.00
36214;DHT22;37652;50.400;30.628;2023-04-05T11:03:53;7.40;91.30
36214;DHT22;37652;50.400;30.628;2023-04-05T11:06:03;7.00;89.60
36214;DHT22;37652;50.400;30.628;2023-04-05T11:10:17;7.30;91.00
36214;DHT22;37652;50.400;30.628;2023-04-05T11:14:36;7.30;88.90
36214;DHT22;37652;50.400;30.628;2023-04-05T11:16:39;7.50;90.90
36214;DHT22;37652;50.400;30.628;2023-04-05T11:18:43;7.30;89.10
36214;DHT22;37652;50.400;30.628;2023-04-05T11:20:50;7.20;90.90
36214;DHT22;37652;50.400;30.628;2023-04-05T11:22:54;7.70;90.10
36214;DHT22;37652;50.400;30.628;2023-04-05T11:24:57;7.30;90.80
36214;DHT22;37652;50.400;30.628;2023-04-05T11:31:14;8.00;90.40
36214;DHT22;37652;50.400;30.628;2023-04-05T11:33:38;7.20;88.20
36214;DHT22;37652;50.400;30.628;2023-04-05T11:35:39;7.80;91.10
36214;DHT22;37652;50.400;30.628;2023-04-05T11:40:28;7.50;88.20
36214;DHT22;37652;50.400;30.628;2023-04-05T11:42:29;7.30;89.60
36214;DHT22;37652;50.400;30.628;2023-04-05T11:44:45;7.60;88.60
36214;DHT22;37652;50.400;30.628;2023-04-05T11:46:46;7.60;90.80
36214;DHT22;37652;50.400;30.628;2023-04-05T11:48:49;7.10;88.60
36214;DHT22;37652;50.400;30.628;2023-04-05T11:50:50;7.20;90.80
36214;DHT22;37652;50.400;30.628;2023-04-05T11:53:09;7.30;90.70
36214;DHT22;37652;50.400;30.628;2023-04-05T11:57:19;7.70;90.90
36214;DHT22;37652;50.400;30.628;2023-04-05T11:59:30;7.60;90.90
36214;DHT22;37652;50.400;30.628;2023-04-05T12:01:32;7.80;91.00
36214;DHT22;37652;50.400;30.628;2023-04-05T12:03:34;7.40;91.00
36214;DHT22;37652;50.400;30.628;2023-04-05T12:07:51;7.20;90.90
36214;DHT22;37652;50.400;30.628;2023-04-05T12:12:03;7.80;90.10
36214;DHT22;37652;50.400;30.628;2023-04-05T12:14:04;7.20;91.00
36214;DHT22;37652;50.400;30.628;2023-04-05T12:16:07;7.40;90.80
36214;DHT22;37652;50.400;30.628;2023-04-05T12:18:12;8.00;88.70
36214;DHT22;37652;50.400;30.628;2023-04-05T12:20:16;7.60;91.00
36214;DHT22;37652;50.400;30.628;2023-04-05T12:22:18;7.80;91.00
36214;DHT22;37652;50.400;30.628;2023-04-05T12:26:20;7.70;89.00
36214;DHT22;37652;50.400;30.628;2023-04-05T12:28:21;7.80;90.70
36214;DHT22;37652;50.400;30.628;2023-04-05T12:30:23;8.30;90.50
36214;DHT22;37652;50.400;30.628;2023-04-05T12:32:23;7.90;90.00
36214;DHT22;37652;50.400;30.628;2023-04-05T12:34:24;7.70;90.30
36214;DHT22;37652;50.400;30.628;2023-04-05T12:36:26;8.50;90.60
36214;DHT22;37652;50.400;30.628;2023-04-05T12:38:28;8.30;90.40
36214;DHT22;37652;50.400;30.628;2023-04-05T12:40:29;8.50;90.40
36214;DHT22;37652;50.400;30.628;2023-04-05T12:42:33;8.20;87.20
36214;DHT22;37652;50.400;30.628;2023-04-05T12:44:36;8.30;90.20
36214;DHT22;37652;50.400;30.628;2023-04-05T12:46:44;8.30;90.20
36214;DHT22;37652;50.400;30.628;2023-04-05T12:48:49;8.30;86.70
36214;DHT22;37652;50.400;30.628;2023-04-05T12:50:51;8.20;90.00
36214;DHT22;37652;50.400;30.628;2023-04-05T12:52:59;8.60;90.10
36214;DHT22;37652;50.400;30.628;2023-04-05T12:55:01;8.10;90.10
36214;DHT22;37652;50.400;30.628;2023-04-05T12:57:01;8.30;90.20
36214;DHT22;37652;50.400;30.628;2023-04-05T12:59:08;8.00;90.30
36214;DHT22;37652;50.400;30.628;2023-04-05T13:01:09;7.90;90.50
36214;DHT22;37652;50.400;30.628;2023-04-05T13:03:18;8.60;88.20
36214;DHT22;37652;50.400;30.628;2023-04-05T13:05:26;7.70;87.40
36214;DHT22;37652;50.400;30.628;2023-04-05T13:07:27;7.50;90.70
36214;DHT22;37652;50.400;30.628;2023-04-05T13:11:31;7.50;89.80
36214;DHT22;37652;50.400;30.628;2023-04-05T13:15:33;7.70;90.10
36214;DHT22;37652;50.400;30.628;2023-04-05T13:17:34;7.70;91.30
36214;DHT22;37652;50.400;30.628;2023-04-05T13:23:38;7.00;88.50
36214;DHT22;37652;50.400;30.628;2023-04-05T13:25:41;7.70;91.50
36214;DHT22;37652;50.400;30.628;2023-04-05T13:27:42;7.60;91.60
36214;DHT22;37652;50.400;30.628;2023-04-05T13:31:45;7.40;88.20
36214;DHT22;37652;50.400;30.628;2023-04-05T13:33:46;7.10;92.20
36214;DHT22;37652;50.400;30.628;2023-04-05T13:35:47;7.50;90.00
36214;DHT22;37652;50.400;30.628;2023-04-05T13:39:49;7.00;90.00
36214;DHT22;37652;50.400;30.628;2023-04-05T13:43:51;7.50;91.10
36214;DHT22;37652;50.400;30.628;2023-04-05T13:49:54;7.90;91.00
36214;DHT22;37652;50.400;30.628;2023-04-05T13:53:56;7.30;90.60
36214;DHT22;37652;50.400;30.628;2023-04-05T13:55:57;7.70;87.90
36214;DHT22;37652;50.400;30.628;2023-04-05T13:57:58;7.80;90.80
36214;DHT22;37652;50.400;30.628;2023-04-05T13:59:58;7.60;90.90
36214;DHT22;37652;50.400;30.628;2023-04-05T14:06:01;7.60;89.90
36214;DHT22;37652;50.400;30.628;2023-04-05T14:10:03;7.70;91.50
36214;DHT22;37652;50.400;30.628;2023-04-05T14:18:09;7.50;91.30
36214;DHT22;37652;50.400;30.628;2023-04-05T14:20:10;7.20;88.30
36214;DHT22;37652;50.400;30.628;2023-04-05T14:22:11;6.70;91.50
36214;DHT22;37652;50.400;30.628;2023-04-05T14:24:12;6.70;91.50
36214;DHT22;37652;50.400;30.628;2023-04-05T14:28:14;6.90;91.90
36214;DHT22;37652;50.400;30.628;2023-04-05T14:32:16;6.80;91.90
36214;DHT22;37652;50.400;30.628;2023-04-05T14:34:17;6.60;92.00
36214;DHT22;37652;50.400;30.628;2023-04-05T14:36:19;6.50;91.90
36214;DHT22;37652;50.400;30.628;2023-04-05T14:38:20;7.20;92.40
36214;DHT22;37652;50.400;30.628;2023-04-05T14:40:21;7.40;89.70
36214;DHT22;37652;50.400;30.628;2023-04-05T14:42:21;7.20;91.10
36214;DHT22;37652;50.400;30.628;2023-04-05T14:44:22;6.70;94.20
36214;DHT22;37652;50.400;30.628;2023-04-05T14:46:25;6.70;90.60
36214;DHT22;37652;50.400;30.628;2023-04-05T14:48:26;7.40;91.80
36214;DHT22;37652;50.400;30.628;2023-04-05T14:50:29;6.80;89.80
36214;DHT22;37652;50.400;30.628;2023-04-05T14:58:36;7.10;92.40
36214;DHT22;37652;50.400;30.628;2023-04-05T15:00:38;7.00;89.40
36214;DHT22;37652;50.400;30.628;2023-04-05T15:02:38;7.10;89.80
36214;DHT22;37652;50.400;30.628;2023-04-05T15:04:40;7.30;92.00
36214;DHT22;37652;50.400;30.628;2023-04-05T15:06:40;7.20;91.70
36214;DHT22;37652;50.400;30.628;2023-04-05T15:08:41;7.20;91.20
36214;DHT22;37652;50.400;30.628;2023-04-05T15:12:43;7.30;91.60
36214;DHT22;37652;50.400;30.628;2023-04-05T15:20:48;7.40;91.40
36214;DHT22;37652;50.400;30.628;2023-04-05T15:22:49;7.20;90.00
36214;DHT22;37652;50.400;30.628;2023-04-05T15:26:51;6.90;91.70
36214;DHT22;37652;50.400;30.628;2023-04-05T15:32:54;6.80;91.90
36214;DHT22;37652;50.400;30.628;2023-04-05T15:34:55;7.60;91.80
36214;DHT22;37652;50.400;30.628;2023-04-05T15:40:59;7.50;91.70
36214;DHT22;37652;50.400;30.628;2023-04-05T15:43:00;6.60;92.00
36214;DHT22;37652;50.400;30.628;2023-04-05T15:45:01;7.30;92.30
36214;DHT22;37652;50.400;30.628;2023-04-05T15:47:01;7.90;92.40
36214;DHT22;37652;50.400;30.628;2023-04-05T15:49:03;7.10;92.10
36214;DHT22;37652;50.400;30.628;2023-04-05T15:53:06;7.80;92.50
36214;DHT22;37652;50.400;30.628;2023-04-05T15:57:08;6.70;92.50
36214;DHT22;37652;50.400;30.628;2023-04-05T15:59:08;6.40;91.10
36214;DHT22;37652;50.400;30.628;2023-04-05T16:03:10;7.10;90.80
36214;DHT22;37652;50.400;30.628;2023-04-05T16:07:12;7.00;92.90
36214;DHT22;37652;50.400;30.628;2023-04-05T16:09:13;6.50;93.00
36214;DHT22;37652;50.400;30.628;2023-04-05T16:13:15;6.70;93.70
36214;DHT22;37652;50.400;30.628;2023-04-05T16:17:17;6.70;91.00
36214;DHT22;37652;50.400;30.628;2023-04-05T16:21:19;7.00;92.80
36214;DHT22;37652;50.400;30.628;2023-04-05T16:23:20;7.00;91.20
36214;DHT22;37652;50.400;30.628;2023-04-05T16:25:21;6.90;92.30
36214;DHT22;37652;50.400;30.628;2023-04-05T16:29:23;6.60;92.80
36214;DHT22;37652;50.400;30.628;2023-04-05T16:31:24;6.80;92.90
36214;DHT22;37652;50.400;30.628;2023-04-05T16:33:25;6.80;93.10
36214;DHT22;37652;50.400;30.628;2023-04-05T16:35:26;6.80;91.30
36214;DHT22;37652;50.400;30.628;2023-04-05T16:37:27;7.00;92.20
36214;DHT22;37652;50.400;30.628;2023-04-05T16:39:27;6.90;93.10
36214;DHT22;37652;50.400;30.628;2023-04-05T16:41:28;6.50;92.40
36214;DHT22;37652;50.400;30.628;2023-04-05T16:43:29;6.90;93.10
36214;DHT22;37652;50.400;30.628;2023-04-05T16:45:30;6.70;91.10
36214;DHT22;37652;50.400;30.628;2023-04-05T16:51:36;6.30;92.20
36214;DHT22;37652;50.400;30.628;2023-04-05T16:53:36;6.20;93.00
36214;DHT22;37652;50.400;30.628;2023-04-05T16:55:37;7.00;93.20
36214;DHT22;37652;50.400;30.628;2023-04-05T16:57:38;6.90;93.10
36214;DHT22;37652;50.400;30.628;2023-04-05T17:03:44;7.20;93.30
36214;DHT22;37652;50.400;30.628;2023-04-05T17:09:50;6.70;93.30
36214;DHT22;37652;50.400;30.628;2023-04-05T17:11:51;6.80;93.30
36214;DHT22;37652;50.400;30.628;2023-04-05T17:13:51;6.50;93.20
36214;DHT22;37652;50.400;30.628;2023-04-05T17:15:52;6.50;93.30
36214;DHT22;37652;50.400;30.628;2023-04-05T17:19:54;7.10;93.30
36214;DHT22;37652;50.400;30.628;2023-04-05T17:23:56;6.40;93.20
36214;DHT22;37652;50.400;30.628;2023-04-05T17:27:57;7.00;93.50
36214;DHT22;37652;50.400;30.628;2023-04-05T17:29:58;6.60;93.40